Time;durP1;ratioP1;P1;durP2;ratioP2;P2;SDS_P1;SDS_P2;PMS_P1;PMS_P2;Temp;Humidity;BMP_temperature;BMP_pressure;BME280_temperature;BME280_humidity;BME280_pressure;Samples;Min_cycle;Max_cycle;Signal;HPM_P1;HPM_P2
2022/10/13 00:00:24;;;;;;;8.57;5.95;;;;;;;10.41;nan;101061.59;5069642;28;20110;-69
2022/10/13 00:02:50;;;;;;;9.95;8.00;;;;;;;10.58;nan;101062.72;5087375;28;20404;-69
2022/10/13 00:05:15;;;;;;;10.98;7.13;;;;;;;10.50;nan;101052.84;5089208;28;20119;-69
2022/10/13 00:07:40;;;;;;;10.07;7.37;;;;;;;10.60;nan;101051.03;5052586;28;20914;-69
2022/10/13 00:10:06;;;;;;;9.00;6.65;;;;;;;10.54;nan;101050.78;5088203;28;20043;-69
2022/10/13 00:12:38;;;;;;;10.13;7.67;;;;;;;10.66;nan;101060.25;5068975;28;20761;-69
2022/10/13 00:15:05;;;;;;;7.72;5.60;;;;;;;10.58;nan;101052.16;5088305;28;20086;-69
2022/10/13 00:17:31;;;;;;;8.93;6.65;;;;;;;10.56;nan;101051.47;5088722;28;20145;-69
2022/10/13 00:19:57;;;;;;;9.82;6.63;;;;;;;10.56;nan;101052.31;5069901;28;20111;-69
2022/10/13 00:22:22;;;;;;;8.45;5.35;;;;;;;10.56;nan;101044.38;5088027;28;20040;-69
2022/10/13 00:24:52;;;;;;;8.88;5.88;;;;;;;10.60;nan;101050.19;5105146;28;20039;-69
2022/10/13 00:27:17;;;;;;;;;;;;;;;10.61;nan;101050.06;5088798;28;20455;-69
2022/10/13 00:29:42;;;;;;;;;;;;;;;10.63;nan;101048.13;5088317;28;19916;-69
2022/10/13 00:32:07;;;;;;;;;;;;;;;10.63;nan;101045.47;5070030;28;19916;-69
2022/10/13 00:34:33;;;;;;;;;;;;;;;10.61;nan;101052.72;5086534;28;20004;-69
2022/10/13 00:36:58;;;;;;;9.88;7.03;;;;;;;10.64;nan;101051.59;5084173;28;20344;-69
2022/10/13 00:39:24;;;;;;;;;;;;;;;10.67;nan;101048.66;5077691;28;20044;-69
2022/10/13 00:41:49;;;;;;;;;;;;;;;10.65;nan;101050.63;5070841;28;19912;-69
2022/10/13 00:44:33;;;;;;;;;;;;;;;10.61;nan;101042.13;5087630;28;20002;-69
2022/10/13 00:46:58;;;;;;;;;;;;;;;10.59;nan;101038.78;5088638;28;19931;-69
2022/10/13 00:49:23;;;;;;;;;;;;;;;10.53;nan;101038.50;5073271;28;20384;-68
2022/10/13 00:51:49;;;;;;;;;;;;;;;10.47;nan;101033.78;5088418;28;19951;-69
2022/10/13 00:54:16;;;;;;;;;;;;;;;10.41;nan;101028.06;5087783;28;20010;-69
2022/10/13 00:56:42;;;;;;;;;;;;;;;10.33;nan;101040.31;5088027;28;19912;-69
2022/10/13 00:59:11;;;;;;;;;;;;;;;10.26;nan;101034.72;5087876;28;20343;-69
2022/10/13 01:01:36;;;;;;;;;;;;;;;10.19;nan;101038.88;5088102;28;19916;-68
2022/10/13 01:04:02;;;;;;;;;;;;;;;10.12;nan;101043.84;5087682;28;19912;-69
2022/10/13 01:06:27;;;;;;;;;;;;;;;10.07;nan;101040.78;5094463;28;19944;-68
2022/10/13 01:08:53;;;;;;;;;;;;;;;10.04;nan;101045.53;5088098;28;19920;-69
2022/10/13 01:11:31;;;;;;;;;;;;;;;9.99;nan;101044.13;5087955;28;19923;-69
2022/10/13 01:14:15;;;;;;;;;;;;;;;9.94;nan;101038.41;5088069;28;19927;-67
2022/10/13 01:16:44;;;;;;;;;;;;;;;9.90;nan;101044.94;5088494;28;19916;-68
2022/10/13 01:19:37;;;;;;;;;;;;;;;9.89;nan;101037.97;5087579;28;19918;-68
2022/10/13 01:22:21;;;;;;;;;;;;;;;9.90;nan;101037.00;5088160;28;19957;-67
2022/10/13 01:24:49;;;;;;;;;;;;;;;9.90;nan;101030.88;5078003;28;20338;-68
2022/10/13 01:27:20;;;;;;;;;;;;;;;9.90;nan;101031.72;5088111;28;19943;-67
2022/10/13 01:29:55;;;;;;;;;;;;;;;9.91;nan;101033.38;5087869;28;19952;-68
2022/10/13 01:32:20;;;;;;;13.37;8.67;;;;;;;9.94;nan;101033.13;5086977;28;19920;-67
2022/10/13 01:34:54;;;;;;;11.25;8.20;;;;;;;9.97;nan;101035.50;5087497;28;20414;-67
2022/10/13 01:37:37;;;;;;;10.93;8.05;;;;;;;9.98;nan;101034.50;5069496;28;20396;-69
2022/10/13 01:40:32;;;;;;;15.73;9.50;;;;;;;9.98;nan;101034.50;5090577;28;20043;-68
2022/10/13 01:43:03;;;;;;;;;;;;;;;10.01;nan;101041.34;5078532;28;20039;-68
2022/10/13 01:45:34;;;;;;;10.90;7.63;;;;;;;10.06;nan;101044.41;5076325;28;19923;-68
2022/10/13 01:48:02;;;;;;;12.20;8.68;;;;;;;10.10;nan;101044.97;5079996;28;20044;-68
2022/10/13 01:50:28;;;;;;;18.65;10.82;;;;;;;10.15;nan;101042.75;5099064;28;20040;-68
2022/10/13 01:52:55;;;;;;;14.68;9.52;;;;;;;10.18;nan;101037.22;5091294;28;20024;-69
2022/10/13 01:55:20;;;;;;;15.45;10.18;;;;;;;10.22;nan;101038.59;5072724;28;20392;-69
2022/10/13 01:57:46;;;;;;;12.87;9.60;;;;;;;10.36;nan;101029.47;5090133;28;20405;-69
2022/10/13 02:00:14;;;;;;;10.33;8.47;;;;;;;10.48;nan;101035.44;5089351;28;20537;-69
2022/10/13 02:03:05;;;;;;;9.68;7.68;;;;;;;10.36;nan;101030.28;5091149;28;20297;-68
2022/10/13 02:05:55;;;;;;;;;;;;;;;10.30;nan;101038.78;5097649;28;20240;-68
2022/10/13 02:08:32;;;;;;;11.68;8.82;;;;;;;10.25;nan;101040.13;5090202;28;19974;-69
2022/10/13 02:11:05;;;;;;;9.57;6.75;;;;;;;10.21;nan;101035.13;5091169;28;20496;-69
2022/10/13 02:13:32;;;;;;;9.10;6.70;;;;;;;10.18;nan;101037.22;5091372;28;20080;-69
2022/10/13 02:15:59;;;;;;;9.80;6.30;;;;;;;10.14;nan;101038.44;5090851;28;20105;-69
2022/10/13 02:18:29;;;;;;;9.23;6.40;;;;;;;10.10;nan;101037.03;5090344;28;20051;-70
2022/10/13 02:20:55;;;;;;;8.80;6.70;;;;;;;10.06;nan;101035.63;5073032;28;20028;-68
2022/10/13 02:23:21;;;;;;;12.77;8.57;;;;;;;10.20;nan;101032.59;5102808;28;20481;-70
2022/10/13 02:25:48;;;;;;;10.77;7.60;;;;;;;10.12;nan;101029.81;5090219;28;20501;-67
2022/10/13 02:28:14;;;;;;;;;;;;;;;10.06;nan;101025.94;5071798;28;20282;-67
2022/10/13 02:30:40;;;;;;;8.15;6.18;;;;;;;10.00;nan;101023.81;5072586;28;20156;-70
2022/10/13 02:33:06;;;;;;;10.00;7.73;;;;;;;10.11;nan;101022.88;5089579;28;20413;-67
2022/10/13 02:35:32;;;;;;;9.02;6.50;;;;;;;10.02;nan;101015.75;5090970;28;20032;-70
2022/10/13 02:37:58;;;;;;;8.32;6.93;;;;;;;9.95;nan;101018.94;5090850;28;20028;-69
2022/10/13 02:40:23;;;;;;;8.95;6.97;;;;;;;9.90;nan;101018.50;5089525;28;20549;-69
2022/10/13 02:42:49;;;;;;;8.00;5.85;;;;;;;9.88;nan;101012.53;5090194;28;20032;-69
2022/10/13 02:45:15;;;;;;;7.63;5.80;;;;;;;9.85;nan;101015.44;5089861;28;20050;-69
2022/10/13 02:47:40;;;;;;;7.65;5.93;;;;;;;9.85;nan;101009.34;5097626;28;20542;-69
2022/10/13 02:50:06;;;;;;;7.57;5.28;;;;;;;9.84;nan;101007.63;5094482;28;20042;-70
2022/10/13 02:52:31;;;;;;;8.55;6.20;;;;;;;9.83;nan;101006.81;5091158;28;20032;-69
2022/10/13 02:54:56;;;;;;;9.90;6.38;;;;;;;9.84;nan;101002.34;5091243;28;20044;-69
2022/10/13 02:57:22;;;;;;;8.18;5.97;;;;;;;9.83;nan;100998.88;5091461;28;20400;-69
2022/10/13 02:59:47;;;;;;;10.77;7.68;;;;;;;9.83;nan;100993.59;5090689;28;20063;-69
2022/10/13 03:02:13;;;;;;;14.38;10.00;;;;;;;9.82;nan;100989.31;5090540;28;20059;-69
2022/10/13 03:04:38;;;;;;;11.38;8.20;;;;;;;9.83;nan;100990.13;5091505;28;20103;-69
2022/10/13 03:07:03;;;;;;;13.68;9.18;;;;;;;9.83;nan;100993.59;5106017;28;20027;-69
2022/10/13 03:09:29;;;;;;;17.08;10.77;;;;;;;9.85;nan;100996.13;5102390;28;20059;-69
2022/10/13 03:11:54;;;;;;;14.05;10.55;;;;;;;9.86;nan;101000.41;5072024;28;20032;-69
2022/10/13 03:14:19;;;;;;;16.77;10.07;;;;;;;9.88;nan;100999.31;5088943;28;20028;-69
2022/10/13 03:16:45;;;;;;;10.50;8.25;;;;;;;9.90;nan;101004.47;5090196;28;20046;-69
2022/10/13 03:19:10;;;;;;;17.35;9.77;;;;;;;9.94;nan;101004.06;5089730;28;20059;-69
2022/10/13 03:21:37;;;;;;;18.48;11.68;;;;;;;9.97;nan;100993.22;5095400;28;20031;-69
2022/10/13 03:24:04;;;;;;;16.88;10.98;;;;;;;10.02;nan;100999.91;5094932;28;20044;-70
2022/10/13 03:26:30;;;;;;;13.00;9.38;;;;;;;10.02;nan;100998.09;5089929;28;20028;-69
2022/10/13 03:28:55;;;;;;;15.07;9.43;;;;;;;10.03;nan;100999.75;5088826;28;20105;-69
2022/10/13 03:31:20;;;;;;;12.27;8.30;;;;;;;10.01;nan;101004.38;5089629;28;20035;-69
2022/10/13 03:33:46;;;;;;;14.48;8.88;;;;;;;10.06;nan;101006.56;5089248;28;20650;-68
2022/10/13 03:36:12;;;;;;;16.08;9.05;;;;;;;10.05;nan;100997.81;5088669;28;20516;-69
2022/10/13 03:38:38;;;;;;;16.80;10.25;;;;;;;10.07;nan;100998.50;5089005;28;20028;-69
2022/10/13 03:41:06;;;;;;;11.80;8.35;;;;;;;10.08;nan;100999.34;5089559;28;20053;-69
2022/10/13 03:43:31;;;;;;;11.82;7.30;;;;;;;10.09;nan;100991.28;5071317;28;20035;-69
2022/10/13 03:45:58;;;;;;;9.43;6.70;;;;;;;10.11;nan;100999.09;5071311;28;20397;-69
2022/10/13 03:48:23;;;;;;;13.82;7.97;;;;;;;10.13;nan;100987.41;5078671;28;20050;-69
2022/10/13 03:50:49;;;;;;;11.93;7.55;;;;;;;10.17;nan;100993.25;5071416;28;20028;-68
2022/10/13 03:53:14;;;;;;;11.70;6.65;;;;;;;10.17;nan;100987.97;5089256;28;20401;-69
2022/10/13 03:55:39;;;;;;;9.82;7.05;;;;;;;10.18;nan;100994.94;5087369;28;20111;-69
2022/10/13 03:58:05;;;;;;;11.30;6.65;;;;;;;10.19;nan;100986.00;5085558;28;20501;-68
2022/10/13 04:00:30;;;;;;;10.10;5.80;;;;;;;10.19;nan;100981.56;5088209;28;20028;-69
2022/10/13 04:02:56;;;;;;;12.15;5.47;;;;;;;10.22;nan;100985.72;5088831;28;20270;-69
2022/10/13 04:05:21;;;;;;;9.65;5.72;;;;;;;10.24;nan;100998.81;5089192;28;20032;-69
2022/10/13 04:07:46;;;;;;;8.57;5.93;;;;;;;10.24;nan;100994.34;5070655;28;20038;-69
2022/10/13 04:10:12;;;;;;;8.23;5.63;;;;;;;10.25;nan;101001.34;5088174;28;20275;-69
2022/10/13 04:12:37;;;;;;;8.77;5.28;;;;;;;10.25;nan;101003.97;5088490;28;20649;-67
2022/10/13 04:15:03;;;;;;;8.30;5.90;;;;;;;10.27;nan;101004.66;5088480;28;20538;-67
2022/10/13 04:17:28;;;;;;;8.68;5.68;;;;;;;10.32;nan;101007.78;5088591;28;20040;-67
2022/10/13 04:19:53;;;;;;;16.42;8.82;;;;;;;10.36;nan;101006.50;5070074;28;20071;-67
2022/10/13 04:22:19;;;;;;;17.63;9.60;;;;;;;10.41;nan;100995.50;5099856;28;20250;-70
2022/10/13 04:24:44;;;;;;;28.85;12.25;;;;;;;10.47;nan;100999.44;5089412;28;20450;-67
2022/10/13 04:27:10;;;;;;;33.28;12.98;;;;;;;10.50;nan;100999.13;5088177;28;20082;-67
2022/10/13 04:29:35;;;;;;;28.98;14.00;;;;;;;10.52;nan;100997.19;5088008;28;20255;-67
2022/10/13 04:32:00;;;;;;;24.92;13.10;;;;;;;10.53;nan;100999.69;5087782;28;20036;-67
2022/10/13 04:34:25;;;;;;;25.92;13.38;;;;;;;10.55;nan;101010.13;5087678;28;20032;-67
2022/10/13 04:36:51;;;;;;;32.10;13.68;;;;;;;10.54;nan;101005.81;5069544;28;20046;-67
2022/10/13 04:39:17;;;;;;;15.95;11.15;;;;;;;10.55;nan;101003.03;5086708;28;20097;-67
2022/10/13 04:41:42;;;;;;;16.90;11.40;;;;;;;10.59;nan;101009.72;5075346;28;20109;-67
2022/10/13 04:44:08;;;;;;;17.98;9.88;;;;;;;10.66;nan;101009.16;5087523;28;20328;-70
2022/10/13 04:46:33;;;;;;;16.15;9.98;;;;;;;10.69;nan;100998.28;5088439;28;20434;-70
2022/10/13 04:48:58;;;;;;;26.60;13.50;;;;;;;10.70;nan;100995.50;5099166;28;20039;-67
2022/10/13 04:51:25;;;;;;;19.87;12.30;;;;;;;10.83;nan;100997.84;5107316;28;20380;-70
2022/10/13 04:53:57;;;;;;;21.10;11.13;;;;;;;10.97;nan;100999.22;5086686;28;20402;-70
2022/10/13 04:56:23;;;;;;;32.88;11.98;;;;;;;10.87;nan;100993.09;5087477;28;20047;-69
2022/10/13 04:58:48;;;;;;;;;;;;;;;10.79;nan;100999.94;5088123;28;20052;-67
2022/10/13 05:01:17;;;;;;;13.60;9.67;;;;;;;10.78;nan;100992.16;5087911;28;19974;-69
2022/10/13 05:03:43;;;;;;;15.40;8.85;;;;;;;10.80;nan;100993.69;5087610;28;20043;-69
2022/10/13 05:06:17;;;;;;;12.23;8.27;;;;;;;10.78;nan;100992.16;5093834;28;20036;-70
2022/10/13 05:08:43;;;;;;;11.32;7.15;;;;;;;10.75;nan;100985.34;5087201;28;20051;-69
2022/10/13 05:11:08;;;;;;;8.68;6.30;;;;;;;10.73;nan;100983.81;5087895;28;20489;-68
2022/10/13 05:13:35;;;;;;;10.32;6.88;;;;;;;10.70;nan;100992.88;5086967;28;20485;-69
2022/10/13 05:16:05;;;;;;;9.95;6.63;;;;;;;10.71;nan;100983.94;5087851;28;20040;-69
2022/10/13 05:18:30;;;;;;;13.67;8.53;;;;;;;10.70;nan;100973.50;5087245;28;20040;-68
2022/10/13 05:20:56;;;;;;;11.23;7.38;;;;;;;10.66;nan;100972.13;5087561;28;20093;-69
2022/10/13 05:23:21;;;;;;;15.07;9.05;;;;;;;10.61;nan;100954.88;5065308;28;20047;-69
2022/10/13 05:25:46;;;;;;;17.85;11.60;;;;;;;10.53;nan;100954.72;5062682;28;20043;-68
2022/10/13 05:28:12;;;;;;;;;;;;;;;10.47;nan;100954.47;5069169;28;20073;-67
2022/10/13 05:30:38;;;;;;;16.35;10.55;;;;;;;10.40;nan;100949.75;5087753;28;19912;-69
2022/10/13 05:33:03;;;;;;;13.82;9.80;;;;;;;10.35;nan;100937.94;5069926;28;20052;-69
2022/10/13 05:35:29;;;;;;;11.90;8.80;;;;;;;10.31;nan;100944.47;5087475;28;20056;-69
2022/10/13 05:37:54;;;;;;;11.70;7.20;;;;;;;10.25;nan;100940.53;5068933;28;20466;-69
2022/10/13 05:40:20;;;;;;;13.23;7.65;;;;;;;10.19;nan;100939.28;5087054;28;20035;-69
2022/10/13 05:42:46;;;;;;;14.27;9.77;;;;;;;10.14;nan;100935.38;5086970;28;20390;-69
2022/10/13 05:45:11;;;;;;;13.95;10.02;;;;;;;10.07;nan;100939.56;5087831;28;20054;-69
2022/10/13 05:47:36;;;;;;;14.55;9.00;;;;;;;10.06;nan;100943.16;5087003;28;20059;-69
2022/10/13 05:50:02;;;;;;;15.60;9.67;;;;;;;10.06;nan;100929.94;5100625;28;20040;-69
2022/10/13 05:52:32;;;;;;;29.00;15.90;;;;;;;10.12;nan;100924.94;5068477;28;20266;-69
2022/10/13 05:55:01;;;;;;;21.83;14.87;;;;;;;10.35;nan;100925.53;5086156;28;20406;-70
2022/10/13 05:57:40;;;;;;;15.02;11.50;;;;;;;10.49;nan;100918.97;5086285;28;20387;-69
2022/10/13 06:00:07;;;;;;;;;;;;;;;10.41;nan;100926.78;5087129;28;20039;-69
2022/10/13 06:02:41;;;;;;;11.10;7.45;;;;;;;10.40;nan;100920.66;5087662;28;20420;-69
2022/10/13 06:05:12;;;;;;;11.63;7.45;;;;;;;10.43;nan;100931.94;5086830;28;20048;-69
2022/10/13 06:07:37;;;;;;;10.85;6.97;;;;;;;10.43;nan;100924.81;5067047;28;20029;-69
2022/10/13 06:10:03;;;;;;;11.27;6.70;;;;;;;10.43;nan;100924.81;5080768;28;20111;-69
2022/10/13 06:12:29;;;;;;;14.73;8.82;;;;;;;10.43;nan;100924.81;5086545;28;20465;-68
2022/10/13 06:14:54;;;;;;;13.73;8.88;;;;;;;10.44;nan;100930.94;5087116;28;20032;-68
2022/10/13 06:17:19;;;;;;;11.63;7.40;;;;;;;10.45;nan;100925.53;5087172;28;20047;-68
2022/10/13 06:19:45;;;;;;;13.85;9.43;;;;;;;10.45;nan;100922.88;5086285;28;20068;-68
2022/10/13 06:22:10;;;;;;;12.93;8.35;;;;;;;10.47;nan;100930.69;5093851;28;20067;-68
2022/10/13 06:24:35;;;;;;;15.55;8.68;;;;;;;10.47;nan;100931.50;5106368;28;20043;-68
2022/10/13 06:27:00;;;;;;;12.65;8.68;;;;;;;10.48;nan;100938.44;5109180;28;20031;-68
2022/10/13 06:29:26;;;;;;;13.02;8.80;;;;;;;10.52;nan;100941.66;5090521;28;20040;-68
2022/10/13 06:31:51;;;;;;;14.70;10.27;;;;;;;10.55;nan;100925.50;5072748;28;20562;-68
2022/10/13 06:34:16;;;;;;;14.88;10.20;;;;;;;10.58;nan;100938.44;5071775;28;20064;-68
2022/10/13 06:36:41;;;;;;;14.27;8.95;;;;;;;10.67;nan;100934.94;5090250;28;20046;-68
2022/10/13 06:39:07;;;;;;;12.65;8.63;;;;;;;10.78;nan;100937.44;5090636;28;20047;-68
2022/10/13 06:41:33;;;;;;;11.20;7.90;;;;;;;10.88;nan;100936.56;5090426;28;20560;-68
2022/10/13 06:43:58;;;;;;;11.82;8.00;;;;;;;10.96;nan;100941.97;5091618;28;20062;-68
2022/10/13 06:46:23;;;;;;;12.13;8.38;;;;;;;11.06;nan;100953.38;5089913;28;20441;-68
2022/10/13 06:48:49;;;;;;;12.52;8.07;;;;;;;11.17;nan;100953.19;5100664;28;20114;-68
2022/10/13 06:51:15;;;;;;;11.15;8.35;;;;;;;11.29;nan;100943.25;5090023;28;20028;-68
2022/10/13 06:53:40;;;;;;;15.55;9.32;;;;;;;11.39;nan;100951.13;5072244;28;20032;-68
2022/10/13 06:56:06;;;;;;;11.20;7.68;;;;;;;11.51;nan;100954.44;5071538;28;20048;-68
2022/10/13 06:58:33;;;;;;;14.50;8.77;;;;;;;11.59;nan;100965.13;5089745;28;20070;-68
2022/10/13 07:00:58;;;;;;;13.90;8.88;;;;;;;11.66;nan;100966.22;5090263;28;20038;-68
2022/10/13 07:03:24;;;;;;;19.02;10.00;;;;;;;11.66;nan;100968.88;5071510;28;20032;-68
2022/10/13 07:05:50;;;;;;;17.60;11.43;;;;;;;11.64;nan;100962.88;5096359;28;20023;-68
2022/10/13 07:08:16;;;;;;;21.80;11.82;;;;;;;11.61;nan;100956.06;5109656;28;20031;-68
2022/10/13 07:10:41;;;;;;;20.52;13.38;;;;;;;11.55;nan;100961.94;5091793;28;20196;-68
2022/10/13 07:13:07;;;;;;;22.67;13.45;;;;;;;11.53;nan;100963.06;5110367;28;20462;-68
2022/10/13 07:15:32;;;;;;;22.20;14.10;;;;;;;11.52;nan;100958.75;5096400;28;20037;-68
2022/10/13 07:17:58;;;;;;;40.67;17.48;;;;;;;11.53;nan;100947.16;5069508;28;20220;-68
2022/10/13 07:20:24;;;;;;;23.90;14.55;;;;;;;11.58;nan;100953.69;5058381;28;20086;-68
2022/10/13 07:22:52;;;;;;;25.08;16.02;;;;;;;11.69;nan;100957.97;5103464;28;20062;-68
2022/10/13 07:25:18;;;;;;;31.27;15.77;;;;;;;11.85;nan;100952.00;5083945;28;20032;-68
2022/10/13 07:27:43;;;;;;;22.98;14.77;;;;;;;11.89;nan;100946.31;5070087;28;20512;-68
2022/10/13 07:30:09;;;;;;;21.85;14.43;;;;;;;12.06;nan;100946.44;5074088;28;20051;-69
2022/10/13 07:32:34;;;;;;;24.20;14.32;;;;;;;12.13;nan;100938.72;5089444;28;20070;-68
2022/10/13 07:35:00;;;;;;;23.10;13.85;;;;;;;12.14;nan;100933.28;5086292;28;20035;-68
2022/10/13 07:37:25;;;;;;;20.85;13.50;;;;;;;12.22;nan;100932.50;5087321;28;20040;-68
2022/10/13 07:39:51;;;;;;;19.83;13.40;;;;;;;12.27;nan;100943.47;5084333;28;20040;-68
2022/10/13 07:42:17;;;;;;;16.48;10.15;;;;;;;12.39;nan;100939.59;5069084;28;20131;-68
2022/10/13 07:44:42;;;;;;;15.35;10.15;;;;;;;12.50;nan;100938.53;5079021;28;20040;-68
2022/10/13 07:47:08;;;;;;;12.70;8.98;;;;;;;12.58;nan;100943.91;5075887;28;20037;-68
2022/10/13 07:49:33;;;;;;;12.18;8.20;;;;;;;12.65;nan;100944.13;5105154;28;20031;-68
2022/10/13 07:51:59;;;;;;;13.75;9.50;;;;;;;12.64;nan;100943.28;5078710;28;20032;-68
2022/10/13 07:54:25;;;;;;;11.80;7.72;;;;;;;12.69;nan;100938.34;5068372;28;20060;-68
2022/10/13 07:56:51;;;;;;;12.95;8.27;;;;;;;12.77;nan;100934.09;5062037;28;20024;-68
2022/10/13 07:59:17;;;;;;;12.98;8.95;;;;;;;12.93;nan;100931.53;5068837;28;20503;-68
2022/10/13 08:01:42;;;;;;;12.90;8.50;;;;;;;13.05;nan;100917.00;5055567;28;20033;-68
2022/10/13 08:04:07;;;;;;;13.23;9.57;;;;;;;13.16;nan;100903.44;5058181;28;20046;-68
2022/10/13 08:06:32;;;;;;;18.35;12.10;;;;;;;13.32;nan;100897.41;5082882;28;20492;-68
2022/10/13 08:08:59;;;;;;;18.35;12.23;;;;;;;13.47;nan;100910.91;5088550;28;20067;-68
2022/10/13 08:11:25;;;;;;;15.50;10.95;;;;;;;13.79;nan;100918.09;5070601;28;20040;-68
2022/10/13 08:13:51;;;;;;;13.38;9.63;;;;;;;14.21;nan;100914.50;5070266;28;20040;-68
2022/10/13 08:16:17;;;;;;;12.45;8.45;;;;;;;14.62;nan;100925.16;5069881;28;20044;-68
2022/10/13 08:18:43;;;;;;;11.88;8.73;;;;;;;14.99;nan;100931.75;5069998;28;20032;-68
2022/10/13 08:21:12;;;;;;;9.25;6.57;;;;;;;15.42;nan;100916.28;5083686;28;20093;-68
2022/10/13 08:23:37;;;;;;;9.23;6.78;;;;;;;15.65;nan;100921.63;5090473;28;20046;-68
2022/10/13 08:26:03;;;;;;;9.07;6.13;;;;;;;15.85;nan;100922.06;5088686;28;20036;-68
2022/10/13 08:28:28;;;;;;;8.25;5.85;;;;;;;16.02;nan;100916.63;5087261;28;20071;-68
2022/10/13 08:30:56;;;;;;;9.20;6.75;;;;;;;16.13;nan;100922.34;5088345;28;20036;-68
2022/10/13 08:33:22;;;;;;;8.02;6.10;;;;;;;16.20;nan;100919.78;5088699;28;20042;-68
2022/10/13 08:35:48;;;;;;;10.27;7.72;;;;;;;16.41;nan;100923.63;5076997;28;20406;-69
2022/10/13 08:38:13;;;;;;;12.43;8.40;;;;;;;16.39;nan;100931.00;5083695;28;20040;-69
2022/10/13 08:40:39;;;;;;;13.02;8.85;;;;;;;16.29;nan;100925.91;5073106;28;20028;-68
2022/10/13 08:43:13;;;;;;;11.48;8.45;;;;;;;16.29;nan;100921.38;5089012;28;20039;-69
2022/10/13 08:45:38;;;;;;;12.32;8.32;;;;;;;16.17;nan;100920.16;5088500;28;20392;-68
2022/10/13 08:48:11;;;;;;;11.15;8.75;;;;;;;16.00;nan;100924.78;5091538;28;20032;-69
2022/10/13 08:50:41;;;;;;;12.40;8.63;;;;;;;15.95;nan;100921.00;5089147;28;20484;-68
2022/10/13 08:53:12;;;;;;;11.20;8.33;;;;;;;15.91;nan;100932.00;5070854;28;20059;-68
2022/10/13 08:55:41;;;;;;;;;;;;;;;15.82;nan;100933.06;5089221;28;20059;-68
2022/10/13 08:58:33;;;;;;;12.65;9.48;;;;;;;15.70;nan;100937.13;5086748;28;20061;-70
2022/10/13 09:01:08;;;;;;;14.88;10.07;;;;;;;15.56;nan;100943.19;5062852;28;20063;-68
2022/10/13 09:04:12;;;;;;;12.68;9.27;;;;;;;15.42;nan;100950.06;5079656;28;20584;-68
2022/10/13 09:06:41;;;;;;;13.63;8.60;;;;;;;15.32;nan;100952.94;5069976;28;20036;-68
2022/10/13 09:09:10;;;;;;;10.50;7.53;;;;;;;15.22;nan;100947.00;5051523;28;20037;-68
2022/10/13 09:11:38;;;;;;;11.82;9.13;;;;;;;15.10;nan;100949.19;5067332;28;20033;-68
2022/10/13 09:14:06;;;;;;;18.40;10.25;;;;;;;14.97;nan;100949.72;5085487;28;20121;-68
2022/10/13 09:16:41;;;;;;;10.63;8.25;;;;;;;14.87;nan;100938.41;5086724;28;20434;-69
2022/10/13 09:19:32;;;;;;;13.43;9.25;;;;;;;14.80;nan;100946.28;5086958;28;20055;-68
2022/10/13 09:22:23;;;;;;;14.80;10.38;;;;;;;14.69;nan;100953.78;5096065;28;20305;-68
2022/10/13 09:25:07;;;;;;;14.10;9.90;;;;;;;14.56;nan;100949.81;5088580;28;20081;-68
2022/10/13 09:27:46;;;;;;;12.32;8.32;;;;;;;14.54;nan;100950.94;5068843;28;20036;-68
2022/10/13 09:30:30;;;;;;;12.65;9.05;;;;;;;14.35;nan;100946.75;5086385;28;20328;-69
2022/10/13 09:33:13;;;;;;;13.75;10.18;;;;;;;14.22;nan;100942.75;5072932;28;20033;-68
2022/10/13 09:36:05;;;;;;;16.20;11.15;;;;;;;14.14;nan;100928.66;5048841;28;20036;-68
2022/10/13 09:38:30;;;;;;;15.13;10.77;;;;;;;14.09;nan;100938.94;5076255;28;20400;-68
2022/10/13 09:41:02;;;;;;;14.95;10.38;;;;;;;14.06;nan;100937.41;5086510;28;20044;-68
2022/10/13 09:43:31;;;;;;;16.23;10.77;;;;;;;13.96;nan;100939.41;5086675;28;20043;-68
2022/10/13 09:45:58;;;;;;;16.50;11.88;;;;;;;13.88;nan;100928.78;5068402;28;20044;-68
2022/10/13 09:48:27;;;;;;;16.58;11.57;;;;;;;13.88;nan;100944.72;5086096;28;20507;-68
2022/10/13 09:50:54;;;;;;;16.30;11.43;;;;;;;13.84;nan;100936.22;5086536;28;20117;-68
2022/10/13 09:53:30;;;;;;;13.32;9.80;;;;;;;13.84;nan;100930.09;5086852;28;20131;-68
2022/10/13 09:56:08;;;;;;;12.82;9.70;;;;;;;14.02;nan;100934.28;5085235;28;20487;-68
2022/10/13 09:58:37;;;;;;;12.70;9.60;;;;;;;14.07;nan;100922.31;5081490;28;20402;-68
2022/10/13 10:01:04;;;;;;;10.48;8.02;;;;;;;14.18;nan;100922.84;5070788;28;20774;-68
2022/10/13 10:03:34;;;;;;;9.32;7.70;;;;;;;14.30;nan;100927.78;5089549;28;20929;-68
2022/10/13 10:06:01;;;;;;;8.97;7.57;;;;;;;14.38;nan;100925.97;5073328;28;20926;-68
2022/10/13 10:09:02;;;;;;;10.63;7.90;;;;;;;14.28;nan;100925.31;5078823;28;20281;-68
2022/10/13 10:11:39;;;;;;;13.50;9.57;;;;;;;14.19;nan;100923.66;5082209;28;20039;-68
2022/10/13 10:14:22;;;;;;;13.88;10.25;;;;;;;14.07;nan;100930.31;5090477;28;20125;-68
2022/10/13 10:16:58;;;;;;;14.88;9.77;;;;;;;14.02;nan;100934.28;5084237;28;20032;-68
2022/10/13 10:19:31;;;;;;;13.45;9.82;;;;;;;13.93;nan;100931.78;5070015;28;20044;-68
2022/10/13 10:22:24;;;;;;;11.82;8.85;;;;;;;13.85;nan;100929.06;5087594;28;20035;-68
2022/10/13 10:25:00;;;;;;;16.92;10.20;;;;;;;13.79;nan;100931.41;5090820;28;20153;-68
2022/10/13 10:27:44;;;;;;;12.45;9.27;;;;;;;13.74;nan;100931.06;5087456;28;20059;-68
2022/10/13 10:30:18;;;;;;;13.20;8.90;;;;;;;13.71;nan;100925.25;5080044;28;20081;-68
2022/10/13 10:32:57;;;;;;;11.15;7.15;;;;;;;13.71;nan;100918.09;5090118;28;20024;-68
2022/10/13 10:35:58;;;;;;;11.70;8.88;;;;;;;13.67;nan;100911.44;5072415;28;20037;-68
2022/10/13 10:38:42;;;;;;;8.95;6.53;;;;;;;13.71;nan;100912.78;5042639;28;20033;-68
2022/10/13 10:41:25;;;;;;;9.07;6.55;;;;;;;13.75;nan;100923.91;5079754;28;20515;-68
2022/10/13 10:43:55;;;;;;;8.82;6.55;;;;;;;13.78;nan;100912.97;5081734;28;20035;-68
2022/10/13 10:46:27;;;;;;;9.80;6.80;;;;;;;13.88;nan;100910.16;5068978;28;20036;-68
2022/10/13 10:49:00;;;;;;;8.80;6.30;;;;;;;13.91;nan;100901.84;5093186;28;20039;-68
2022/10/13 10:51:34;;;;;;;6.63;5.00;;;;;;;13.89;nan;100898.53;5095011;28;20135;-68
2022/10/13 10:54:16;;;;;;;8.55;5.80;;;;;;;13.89;nan;100894.03;5084301;28;20082;-68
2022/10/13 10:56:48;;;;;;;8.90;6.18;;;;;;;13.93;nan;100886.56;5080340;28;20043;-68
2022/10/13 10:59:23;;;;;;;12.73;7.85;;;;;;;13.81;nan;100883.41;5089339;28;20035;-68
2022/10/13 11:02:11;;;;;;;12.35;7.50;;;;;;;13.83;nan;100878.75;5083506;28;20555;-68
2022/10/13 11:04:48;;;;;;;10.18;6.72;;;;;;;13.86;nan;100878.41;5090016;28;20089;-68
2022/10/13 11:07:33;;;;;;;8.13;6.03;;;;;;;13.89;nan;100875.44;5092390;28;20249;-68
2022/10/13 11:09:58;;;;;;;9.15;6.50;;;;;;;13.94;nan;100877.59;5108959;28;20535;-68
2022/10/13 11:12:43;;;;;;;10.63;6.67;;;;;;;13.97;nan;100874.63;5089883;28;20044;-68
2022/10/13 11:15:11;;;;;;;8.93;5.57;;;;;;;14.11;nan;100873.09;5073106;28;20111;-68
2022/10/13 11:17:39;;;;;;;10.00;6.38;;;;;;;14.28;nan;100852.66;5080884;28;20446;-68
2022/10/13 11:20:33;;;;;;;8.50;6.07;;;;;;;14.62;nan;100847.97;5068437;28;20036;-69
2022/10/13 11:22:59;;;;;;;13.68;10.48;;;;;;;14.82;nan;100843.06;5063316;28;20128;-68
2022/10/13 11:25:38;;;;;;;16.37;11.17;;;;;;;14.97;nan;100829.03;5092868;28;20115;-68
2022/10/13 11:28:22;;;;;;;17.30;11.93;;;;;;;15.26;nan;100834.56;5106186;28;20381;-69
2022/10/13 11:30:56;;;;;;;12.35;8.80;;;;;;;15.56;nan;100834.72;5092235;28;20036;-69
2022/10/13 11:33:36;;;;;;;;;;;;;;;15.85;nan;100826.06;5069812;28;20039;-68
2022/10/13 11:36:20;;;;;;;;;;;;;;;16.11;nan;100812.34;5095245;28;20144;-69
2022/10/13 11:38:56;;;;;;;14.35;9.40;;;;;;;16.65;nan;100797.91;5089474;28;19912;-68
2022/10/13 11:41:31;;;;;;;14.93;9.98;;;;;;;16.84;nan;100798.41;5088187;28;20036;-68
2022/10/13 11:44:06;;;;;;;12.48;9.35;;;;;;;16.90;nan;100797.63;5088137;28;20459;-69
2022/10/13 11:46:53;;;;;;;11.43;9.15;;;;;;;17.08;nan;100795.41;5087441;28;20031;-69
2022/10/13 11:49:50;;;;;;;14.32;9.73;;;;;;;17.29;nan;100775.91;5092573;28;20451;-68
2022/10/13 11:52:29;;;;;;;14.45;9.25;;;;;;;17.50;nan;100785.78;5075491;28;20040;-69
2022/10/13 11:55:18;;;;;;;11.93;8.45;;;;;;;17.83;nan;100786.09;5084485;28;20043;-69